createdAt,value
2022-10-23T00:00:16.464Z,11.85
2022-10-23T00:10:23.428Z,11.83
2022-10-23T00:20:29.473Z,11.78
2022-10-23T00:30:35.153Z,11.73
2022-10-23T00:40:42.362Z,11.73
2022-10-23T00:50:49.934Z,11.73
2022-10-23T01:00:57.853Z,11.76
2022-10-23T01:11:11.578Z,11.80
2022-10-23T01:21:23.263Z,11.75
2022-10-23T01:31:37.826Z,11.61
2022-10-23T01:41:48.110Z,11.57
2022-10-23T01:51:57.831Z,11.40
2022-10-23T02:02:07.398Z,11.24
2022-10-23T02:22:44.604Z,11.24
2022-10-23T02:32:53.401Z,11.33
2022-10-23T02:43:03.861Z,11.43
2022-10-23T02:53:17.593Z,11.48
2022-10-23T03:03:28.721Z,11.49
2022-10-23T03:13:34.434Z,11.46
2022-10-23T03:23:40.554Z,11.46
2022-10-23T03:33:46.454Z,11.47
2022-10-23T03:43:52.354Z,11.50
2022-10-23T03:53:58.146Z,11.53
2022-10-23T04:04:04.156Z,11.52
2022-10-23T04:14:12.146Z,11.55
2022-10-23T04:24:17.906Z,11.57
2022-10-23T04:34:24.015Z,11.56
2022-10-23T04:44:29.850Z,11.61
2022-10-23T04:54:39.872Z,11.63
2022-10-23T05:04:45.513Z,11.66
2022-10-23T05:14:51.180Z,11.68
2022-10-23T05:24:57.815Z,11.69
2022-10-23T05:35:06.871Z,11.72
2022-10-23T05:45:13.834Z,11.76
2022-10-23T05:55:19.913Z,11.81
2022-10-23T06:05:25.857Z,11.83
2022-10-23T06:15:31.542Z,11.83
2022-10-23T06:25:37.368Z,11.81
2022-10-23T06:35:43.040Z,11.79
2022-10-23T06:45:49.587Z,11.88
2022-10-23T06:55:59.629Z,11.89
2022-10-23T07:06:07.141Z,11.84
2022-10-23T07:16:15.611Z,11.94
2022-10-23T07:26:21.930Z,12.10
2022-10-23T07:36:27.867Z,12.25
2022-10-23T07:46:33.829Z,12.49
2022-10-23T07:56:39.896Z,13.39
2022-10-23T08:06:45.785Z,13.78
2022-10-23T08:16:51.921Z,13.44
2022-10-23T08:26:58.781Z,13.24
2022-10-23T08:37:04.711Z,13.13
2022-10-23T08:47:15.150Z,12.93
2022-10-23T08:57:24.626Z,13.27
2022-10-23T09:07:41.526Z,13.48
2022-10-23T09:17:49.053Z,13.29
2022-10-23T09:27:58.200Z,13.35
2022-10-23T09:38:06.335Z,13.93
2022-10-23T09:48:17.797Z,14.33
2022-10-23T09:58:33.859Z,14.93
2022-10-23T10:08:45.655Z,15.42
2022-10-23T10:18:58.744Z,15.39
2022-10-23T10:29:23.369Z,15.26
2022-10-23T10:39:42.371Z,14.86
2022-10-23T10:49:57.018Z,14.56
2022-10-23T11:00:06.846Z,14.70
2022-10-23T11:10:20.458Z,14.88
2022-10-23T11:20:51.126Z,15.11
2022-10-23T11:31:18.313Z,15.30
2022-10-23T11:41:28.691Z,15.66
2022-10-23T11:51:36.744Z,15.93
2022-10-23T12:01:46.088Z,16.04
2022-10-23T12:12:02.877Z,16.21
2022-10-23T12:22:12.550Z,16.47
2022-10-23T12:32:34.522Z,16.29
2022-10-23T12:42:41.231Z,16.24
2022-10-23T12:52:56.784Z,16.42
2022-10-23T13:03:05.458Z,16.30
2022-10-23T13:13:14.764Z,16.08
2022-10-23T13:23:27.350Z,15.99
2022-10-23T13:33:38.230Z,15.96
2022-10-23T13:43:45.447Z,16.19
2022-10-23T13:53:52.855Z,16.58
2022-10-23T14:04:01.120Z,16.51
2022-10-23T14:14:05.792Z,15.91
2022-10-23T14:24:13.010Z,15.40
2022-10-23T14:34:19.582Z,15.05
2022-10-23T14:44:26.618Z,14.78
2022-10-23T14:54:34.738Z,14.51
2022-10-23T15:04:39.402Z,14.30
2022-10-23T15:14:46.222Z,14.05
2022-10-23T15:24:52.912Z,13.68
2022-10-23T15:35:00.311Z,13.25
2022-10-23T15:45:07.314Z,12.86
2022-10-23T15:55:13.456Z,12.51
2022-10-23T16:05:19.841Z,12.23
2022-10-23T16:15:26.126Z,11.98
2022-10-23T16:35:40.029Z,11.32
2022-10-23T16:45:46.323Z,11.00
2022-10-23T16:55:52.646Z,10.72
2022-10-23T17:06:04.170Z,10.47
2022-10-23T17:16:15.836Z,10.30
2022-10-23T17:26:23.944Z,10.11
2022-10-23T17:36:28.303Z,9.82
2022-10-23T17:46:34.358Z,9.57
2022-10-23T17:56:41.393Z,9.34
2022-10-23T18:06:49.637Z,9.13
2022-10-23T18:16:55.645Z,8.97
2022-10-23T18:27:01.526Z,8.94
2022-10-23T18:37:07.463Z,8.98
2022-10-23T18:47:13.309Z,8.88
2022-10-23T18:57:19.236Z,8.83
2022-10-23T19:07:25.267Z,8.90
2022-10-23T19:17:33.763Z,9.00
2022-10-23T19:27:40.570Z,9.11
2022-10-23T19:37:46.605Z,9.03
2022-10-23T19:47:52.590Z,8.79
2022-10-23T19:57:58.467Z,8.51
2022-10-23T20:08:04.308Z,8.38
2022-10-23T20:18:10.316Z,8.58
2022-10-23T20:28:16.301Z,8.71
2022-10-23T20:38:22.909Z,8.88
2022-10-23T20:48:28.649Z,8.97
2022-10-23T20:58:34.451Z,9.02
2022-10-23T21:08:40.939Z,8.94
2022-10-23T21:18:47.650Z,8.79
2022-10-23T21:29:01.130Z,8.69
2022-10-23T21:39:21.496Z,8.66
2022-10-23T21:49:27.212Z,8.62
2022-10-23T21:59:35.928Z,8.72
2022-10-23T22:09:42.703Z,8.74
2022-10-23T22:19:49.016Z,8.77
2022-10-23T22:29:54.912Z,8.84
2022-10-23T22:40:01.857Z,8.96
2022-10-23T22:50:09.500Z,8.99
2022-10-23T23:00:17.388Z,8.97
2022-10-23T23:10:23.142Z,8.87
2022-10-23T23:20:29.004Z,8.80
2022-10-23T23:30:34.691Z,8.78
2022-10-23T23:40:40.866Z,8.79
2022-10-23T23:50:46.684Z,8.68
